Time;durP1;ratioP1;P1;durP2;ratioP2;P2;SDS_P1;SDS_P2;PMS_P1;PMS_P2;Temp;Humidity;BMP_temperature;BMP_pressure;BME280_temperature;BME280_humidity;BME280_pressure;Samples;Min_cycle;Max_cycle;Signal;HPM_P1;HPM_P2
2022/02/16 00:01:12;;;;;;;3.88;2.58;;;8.20;95.60;;;;;;2062477;28;20468;-93
2022/02/16 00:02:32;;;;;;;2.83;2.40;;;8.10;95.50;;;;;;2067138;28;20047;-93
2022/02/16 00:03:51;;;;;;;3.63;2.60;;;8.20;95.60;;;;;;2053483;28;20039;-91
2022/02/16 00:05:11;;;;;;;3.47;2.42;;;8.20;95.60;;;;;;2058308;28;20516;-93
2022/02/16 00:06:31;;;;;;;4.35;2.92;;;8.10;95.60;;;;;;2064389;28;20035;-92
2022/02/16 00:07:50;;;;;;;3.13;2.10;;;8.10;95.60;;;;;;2068762;28;20070;-92
2022/02/16 00:09:09;;;;;;;3.88;2.42;;;8.10;95.60;;;;;;2055587;28;20043;-92
2022/02/16 00:10:29;;;;;;;3.03;2.28;;;8.10;95.60;;;;;;2061588;28;20035;-92
2022/02/16 00:11:48;;;;;;;2.80;2.10;;;8.20;95.60;;;;;;2051821;28;20125;-93
2022/02/16 00:13:07;;;;;;;2.67;2.10;;;8.20;95.60;;;;;;2042129;29;20047;-93
2022/02/16 00:14:27;;;;;;;2.83;2.20;;;8.10;95.60;;;;;;2059261;28;20117;-92
2022/02/16 00:15:46;;;;;;;2.60;2.10;;;8.20;95.60;;;;;;2064231;28;20030;-93
2022/02/16 00:17:06;;;;;;;3.85;2.20;;;8.20;95.60;;;;;;2052469;28;20039;-93
2022/02/16 00:18:25;;;;;;;2.67;2.05;;;8.20;95.60;;;;;;2048198;29;20047;-93
2022/02/16 00:19:44;;;;;;;2.58;2.00;;;8.20;95.60;;;;;;2049372;29;20118;-93
2022/02/16 00:21:05;;;;;;;3.22;2.00;;;8.20;95.60;;;;;;2053537;28;20082;-93
2022/02/16 00:22:24;;;;;;;;;;;8.20;95.60;;;;;;2054771;28;20051;-92
2022/02/16 00:23:44;;;;;;;2.45;1.75;;;8.20;95.60;;;;;;2057716;28;20307;-92
2022/02/16 00:25:03;;;;;;;3.63;2.20;;;8.20;95.60;;;;;;2057315;28;20038;-93
2022/02/16 00:26:23;;;;;;;2.83;1.90;;;8.20;95.60;;;;;;2058398;28;20492;-93
2022/02/16 00:27:42;;;;;;;2.45;1.60;;;8.20;95.60;;;;;;2060493;28;20082;-93
2022/02/16 00:29:01;;;;;;;2.90;2.10;;;8.20;95.60;;;;;;2060467;28;20065;-92
2022/02/16 00:30:20;;;;;;;2.75;2.03;;;8.20;95.60;;;;;;2064880;28;20035;-93
2022/02/16 00:31:40;;;;;;;3.05;2.05;;;8.20;95.60;;;;;;2063283;28;20408;-93
2022/02/16 00:32:59;;;;;;;2.92;2.15;;;8.20;95.60;;;;;;2057603;28;20039;-92
2022/02/16 00:34:18;;;;;;;3.33;2.30;;;8.20;95.60;;;;;;2057057;28;20047;-93
2022/02/16 00:35:38;;;;;;;3.25;2.42;;;8.20;95.90;;;;;;2051898;28;20043;-93
2022/02/16 00:36:57;;;;;;;3.38;2.47;;;8.20;95.60;;;;;;2061114;28;20042;-92
2022/02/16 00:38:16;;;;;;;3.10;2.30;;;8.20;95.70;;;;;;2054364;28;20047;-93
2022/02/16 00:39:36;;;;;;;2.92;2.25;;;8.20;95.70;;;;;;2053404;28;20039;-92
2022/02/16 00:40:56;;;;;;;2.75;2.22;;;8.20;95.70;;;;;;2056370;28;20034;-93
2022/02/16 00:42:15;;;;;;;3.53;2.50;;;8.20;95.70;;;;;;2054239;28;20057;-93
2022/02/16 00:43:34;;;;;;;2.78;2.28;;;8.20;95.70;;;;;;2048587;28;20035;-92
2022/02/16 00:44:53;;;;;;;2.60;2.13;;;8.20;95.70;;;;;;2053462;28;20043;-92
2022/02/16 00:46:12;;;;;;;3.42;2.35;;;8.20;95.70;;;;;;2055449;28;20051;-93
2022/02/16 00:47:32;;;;;;;2.80;2.22;;;8.20;95.70;;;;;;2056563;28;20054;-93
2022/02/16 00:48:53;;;;;;;2.85;2.20;;;8.20;95.70;;;;;;2052867;28;20035;-92
2022/02/16 00:50:12;;;;;;;3.55;2.60;;;8.20;95.70;;;;;;2043900;29;20122;-92
2022/02/16 00:51:32;;;;;;;2.88;2.30;;;8.20;95.70;;;;;;2050572;28;20118;-92
2022/02/16 00:52:51;;;;;;;3.63;2.50;;;8.20;95.70;;;;;;2057473;28;20396;-92
2022/02/16 00:54:10;;;;;;;3.00;2.40;;;8.20;95.70;;;;;;2057040;28;20436;-92
2022/02/16 00:55:30;;;;;;;3.38;2.47;;;8.20;95.70;;;;;;2057122;28;20493;-92
2022/02/16 00:56:49;;;;;;;3.20;2.50;;;8.20;95.70;;;;;;2054774;28;20035;-92
2022/02/16 00:58:08;;;;;;;2.80;2.22;;;8.20;95.70;;;;;;2066462;28;20536;-92
2022/02/16 00:59:28;;;;;;;3.30;2.40;;;8.30;95.70;;;;;;2067154;28;20130;-92
2022/02/16 01:00:48;;;;;;;3.95;2.65;;;8.30;95.80;;;;;;2065266;28;20039;-92
2022/02/16 01:02:08;;;;;;;3.78;2.60;;;8.30;95.80;;;;;;2069740;28;20046;-92
2022/02/16 01:03:27;;;;;;;3.80;2.63;;;8.30;95.80;;;;;;2071825;28;20047;-92
2022/02/16 01:04:46;;;;;;;3.88;2.95;;;8.30;95.80;;;;;;2052771;28;20027;-93
2022/02/16 01:06:06;;;;;;;4.78;2.70;;;8.30;95.80;;;;;;2049766;29;20044;-93
2022/02/16 01:07:25;;;;;;;3.60;2.60;;;8.30;95.80;;;;;;2055133;28;20039;-92
2022/02/16 01:08:45;;;;;;;4.78;3.13;;;8.30;95.80;;;;;;2045577;29;20043;-92
2022/02/16 01:10:05;;;;;;;4.32;3.03;;;8.30;95.80;;;;;;2074331;28;20035;-92
2022/02/16 01:11:25;;;;;;;3.90;3.17;;;8.30;95.80;;;;;;2064875;28;20038;-93
2022/02/16 01:12:45;;;;;;;4.05;3.20;;;8.30;95.80;;;;;;2064346;28;20122;-92
2022/02/16 01:14:05;;;;;;;4.18;3.28;;;8.30;95.80;;;;;;2063679;28;20034;-93
2022/02/16 01:15:24;;;;;;;4.40;3.35;;;8.30;95.80;;;;;;2063586;28;20039;-93
2022/02/16 01:16:44;;;;;;;4.30;3.42;;;8.30;95.80;;;;;;2063488;28;20043;-93
2022/02/16 01:18:03;;;;;;;5.20;3.78;;;8.30;95.80;;;;;;2064235;28;20493;-93
2022/02/16 01:19:23;;;;;;;4.63;3.55;;;8.30;95.80;;;;;;2064401;28;20026;-93
2022/02/16 01:20:42;;;;;;;4.63;3.35;;;8.30;95.80;;;;;;2063724;28;20498;-93
2022/02/16 01:22:02;;;;;;;4.85;3.45;;;8.30;95.80;;;;;;2056992;28;20043;-92
2022/02/16 01:23:22;;;;;;;4.55;3.40;;;8.30;95.80;;;;;;2056985;28;20043;-94
2022/02/16 01:24:41;;;;;;;5.45;3.70;;;8.30;95.80;;;;;;2056879;28;20070;-94
2022/02/16 01:26:00;;;;;;;5.60;4.55;;;8.30;95.80;;;;;;2057111;28;20051;-92
2022/02/16 01:27:19;;;;;;;5.30;4.47;;;8.30;95.90;;;;;;2055027;28;20047;-94
2022/02/16 01:28:39;;;;;;;6.80;4.68;;;8.30;95.90;;;;;;2051183;28;20043;-92
2022/02/16 01:29:58;;;;;;;5.63;4.43;;;8.30;95.90;;;;;;2053028;28;20039;-92
2022/02/16 01:31:17;;;;;;;5.78;4.30;;;8.30;95.90;;;;;;2056933;28;20051;-93
2022/02/16 01:32:37;;;;;;;6.05;4.22;;;8.30;95.90;;;;;;2049268;28;20043;-92
2022/02/16 01:33:56;;;;;;;5.15;4.10;;;8.30;95.90;;;;;;2061484;28;20038;-93
2022/02/16 01:35:16;;;;;;;6.28;3.97;;;8.40;95.90;;;;;;2050804;28;20074;-94
2022/02/16 01:36:35;;;;;;;6.05;4.28;;;8.40;95.90;;;;;;2054319;28;20035;-92
2022/02/16 01:37:54;;;;;;;5.63;3.70;;;8.40;95.90;;;;;;2065671;28;20035;-94
2022/02/16 01:39:14;;;;;;;5.20;4.22;;;8.40;95.90;;;;;;2058330;28;20479;-93
2022/02/16 01:40:34;;;;;;;5.05;3.72;;;8.30;95.90;;;;;;2056149;28;20123;-92
2022/02/16 01:41:55;;;;;;;5.35;3.63;;;8.40;95.90;;;;;;2074088;28;20037;-93
2022/02/16 01:43:16;;;;;;;5.00;3.70;;;8.40;95.90;;;;;;2078883;28;20067;-93
2022/02/16 01:44:35;;;;;;;7.90;4.00;;;8.40;95.90;;;;;;2059983;28;20039;-93
2022/02/16 01:45:55;;;;;;;4.80;3.70;;;8.40;95.90;;;;;;2062638;28;20101;-93
2022/02/16 01:47:14;;;;;;;6.35;4.32;;;8.40;95.90;;;;;;2063533;28;20039;-92
2022/02/16 01:48:33;;;;;;;5.20;3.55;;;8.40;95.90;;;;;;2064112;28;20039;-94
2022/02/16 01:49:52;;;;;;;5.18;4.05;;;8.40;95.90;;;;;;2066527;28;20050;-93
2022/02/16 01:51:12;;;;;;;4.40;3.70;;;8.40;96.20;;;;;;2066632;28;20046;-92
2022/02/16 01:52:32;;;;;;;5.90;3.90;;;8.40;95.90;;;;;;2055368;28;20047;-93
2022/02/16 01:53:51;;;;;;;6.97;4.68;;;8.40;95.90;;;;;;2060584;28;20039;-92
2022/02/16 01:55:12;;;;;;;6.93;4.60;;;8.40;96.00;;;;;;2062355;28;20031;-93
2022/02/16 01:56:31;;;;;;;5.30;4.18;;;8.40;96.00;;;;;;2062792;28;20061;-92
2022/02/16 01:57:51;;;;;;;5.70;4.18;;;8.40;96.00;;;;;;2055065;28;20039;-93
2022/02/16 01:59:11;;;;;;;6.57;4.32;;;8.40;96.00;;;;;;2042869;29;20044;-93
2022/02/16 02:00:30;;;;;;;5.53;4.22;;;8.40;96.00;;;;;;2089052;28;20065;-92
2022/02/16 02:01:50;;;;;;;6.75;4.32;;;8.40;96.00;;;;;;2053199;28;20393;-93
2022/02/16 02:03:09;;;;;;;6.05;4.47;;;8.40;96.00;;;;;;2049656;28;20454;-92
2022/02/16 02:04:29;;;;;;;5.95;4.00;;;8.40;96.00;;;;;;2043183;28;20433;-92
2022/02/16 02:05:51;;;;;;;5.13;4.18;;;8.40;96.00;;;;;;2055365;28;20047;-92
2022/02/16 02:07:10;;;;;;;6.97;4.50;;;8.40;96.00;;;;;;2049505;29;20043;-93
2022/02/16 02:08:29;;;;;;;7.57;5.00;;;8.40;96.00;;;;;;2053944;28;20051;-92
2022/02/16 02:09:48;;;;;;;7.78;5.18;;;8.50;96.00;;;;;;2076294;28;20066;-93
2022/02/16 02:11:07;;;;;;;6.60;4.80;;;8.40;96.00;;;;;;2067846;28;20031;-91
2022/02/16 02:12:26;;;;;;;5.47;4.50;;;8.50;96.10;;;;;;2062745;28;20089;-92
2022/02/16 02:13:59;;;;;;;6.10;4.30;;;8.50;96.10;;;;;;2060736;28;20051;-93
2022/02/16 02:15:23;;;;;;;5.75;4.43;;;8.50;96.10;;;;;;2056908;28;20209;-92
2022/02/16 02:16:43;;;;;;;6.97;4.75;;;8.50;96.10;;;;;;2063174;28;20038;-92
2022/02/16 02:18:02;;;;;;;7.07;5.18;;;8.50;96.10;;;;;;2057735;28;20035;-92
2022/02/16 02:19:21;;;;;;;7.10;4.40;;;8.50;96.00;;;;;;2049692;28;20425;-93
2022/02/16 02:20:41;;;;;;;7.22;4.93;;;8.50;96.10;;;;;;2046282;29;20078;-93
2022/02/16 02:22:00;;;;;;;5.65;4.47;;;8.50;96.10;;;;;;2046322;29;20048;-93
2022/02/16 02:23:20;;;;;;;5.65;4.40;;;8.50;96.10;;;;;;2048258;28;20039;-93
2022/02/16 02:24:39;;;;;;;6.32;4.50;;;8.50;96.10;;;;;;2053584;28;20467;-93
2022/02/16 02:25:58;;;;;;;6.05;4.65;;;8.50;96.10;;;;;;2057517;28;20509;-92
2022/02/16 02:27:18;;;;;;;8.32;4.72;;;8.50;96.10;;;;;;2063937;28;20042;-92
2022/02/16 02:28:37;;;;;;;6.53;4.75;;;8.50;96.10;;;;;;2057705;28;20088;-92
2022/02/16 02:29:56;;;;;;;7.78;5.05;;;8.50;96.10;;;;;;2060626;28;20492;-92
2022/02/16 02:31:16;;;;;;;7.10;5.03;;;8.50;96.10;;;;;;2062670;28;20046;-91
2022/02/16 02:32:35;;;;;;;6.40;4.50;;;8.50;96.10;;;;;;2066217;28;20038;-92
2022/02/16 02:33:55;;;;;;;7.38;5.00;;;8.50;96.10;;;;;;2061273;28;20043;-92
2022/02/16 02:35:14;;;;;;;7.53;4.50;;;8.50;96.10;;;;;;2049509;28;20035;-92
2022/02/16 02:36:34;;;;;;;5.90;4.32;;;8.50;96.10;;;;;;2043486;29;20043;-93
2022/02/16 02:37:53;;;;;;;5.47;3.97;;;8.50;96.10;;;;;;2057393;28;20039;-93
2022/02/16 02:39:13;;;;;;;5.28;4.13;;;8.50;96.10;;;;;;2057458;28;20047;-92
2022/02/16 02:40:32;;;;;;;5.90;4.45;;;8.50;96.10;;;;;;2060791;28;20404;-93
2022/02/16 02:41:52;;;;;;;6.23;4.30;;;8.50;96.10;;;;;;2065844;28;20034;-92
2022/02/16 02:43:11;;;;;;;6.75;4.20;;;8.50;96.20;;;;;;2057352;28;20278;-92
2022/02/16 02:44:31;;;;;;;6.35;3.90;;;8.50;96.20;;;;;;2053635;28;20031;-93
2022/02/16 02:45:52;;;;;;;5.85;4.25;;;8.50;96.20;;;;;;2057486;28;20444;-91
2022/02/16 02:47:11;;;;;;;7.30;4.40;;;8.50;96.20;;;;;;2049899;29;20086;-94
2022/02/16 02:48:30;;;;;;;6.15;4.25;;;8.50;96.20;;;;;;2052971;28;20046;-91
2022/02/16 02:49:52;;;;;;;5.75;4.00;;;8.60;96.20;;;;;;2054733;28;20073;-92
2022/02/16 02:51:14;;;;;;;5.07;3.90;;;8.50;96.20;;;;;;2052461;28;20039;-90
2022/02/16 02:52:36;;;;;;;5.68;3.90;;;8.60;96.20;;;;;;2042637;28;20040;-91
2022/02/16 02:53:56;;;;;;;6.78;4.00;;;8.60;96.20;;;;;;2054601;28;20051;-91
2022/02/16 02:55:16;;;;;;;5.23;3.77;;;8.50;96.20;;;;;;2059302;28;20070;-92
2022/02/16 02:56:35;;;;;;;5.07;3.50;;;8.60;96.20;;;;;;2065750;28;20262;-92
2022/02/16 02:57:54;;;;;;;5.00;3.15;;;8.60;96.20;;;;;;2054992;28;20134;-91
2022/02/16 02:59:13;;;;;;;3.70;2.92;;;8.60;96.20;;;;;;2054627;28;20050;-92
2022/02/16 03:00:33;;;;;;;4.55;3.33;;;8.60;96.20;;;;;;2057833;28;20089;-92
2022/02/16 03:01:52;;;;;;;5.15;3.35;;;8.60;96.20;;;;;;2074863;28;20033;-91
2022/02/16 03:03:11;;;;;;;4.65;3.50;;;8.60;96.20;;;;;;2052573;28;20048;-92
2022/02/16 03:04:30;;;;;;;5.13;3.47;;;8.60;96.20;;;;;;2047336;29;20043;-92
2022/02/16 03:05:50;;;;;;;4.65;3.60;;;8.60;96.20;;;;;;2043929;28;20039;-92
2022/02/16 03:07:09;;;;;;;4.97;3.30;;;8.60;96.30;;;;;;2088929;28;20414;-92
2022/02/16 03:08:29;;;;;;;4.40;3.30;;;8.60;96.20;;;;;;2070643;28;20047;-92
2022/02/16 03:09:48;;;;;;;5.28;2.90;;;8.60;96.30;;;;;;2053119;28;20488;-92
2022/02/16 03:11:07;;;;;;;4.35;3.25;;;8.60;96.20;;;;;;2052631;28;20491;-91
2022/02/16 03:12:27;;;;;;;4.38;3.50;;;8.60;96.20;;;;;;2062865;28;20484;-93
2022/02/16 03:13:49;;;;;;;4.85;3.60;;;8.60;96.30;;;;;;2065760;28;20038;-92
2022/02/16 03:15:08;;;;;;;6.82;3.58;;;8.60;96.30;;;;;;2060252;28;20133;-92
2022/02/16 03:16:28;;;;;;;5.03;3.38;;;8.60;96.20;;;;;;2048833;28;20443;-92
2022/02/16 03:17:47;;;;;;;5.15;3.38;;;8.60;96.30;;;;;;2056370;28;20050;-92
2022/02/16 03:19:07;;;;;;;4.70;3.33;;;8.60;96.30;;;;;;2066062;28;20050;-92
2022/02/16 03:20:27;;;;;;;4.40;2.95;;;8.60;96.30;;;;;;2056377;28;20039;-92
2022/02/16 03:21:46;;;;;;;4.40;3.03;;;8.60;96.30;;;;;;2050666;28;20035;-92
2022/02/16 03:23:06;;;;;;;4.68;3.05;;;8.60;96.30;;;;;;2068301;28;20051;-92
2022/02/16 03:24:25;;;;;;;4.30;3.10;;;8.60;96.30;;;;;;2061195;28;20046;-92
2022/02/16 03:25:44;;;;;;;4.07;2.80;;;8.60;96.30;;;;;;2062416;28;20043;-93
2022/02/16 03:27:04;;;;;;;5.35;3.05;;;8.60;96.30;;;;;;2068417;28;20038;-92
2022/02/16 03:28:23;;;;;;;4.50;3.03;;;8.60;96.30;;;;;;2066930;28;20069;-92
2022/02/16 03:29:42;;;;;;;4.70;3.10;;;8.60;96.30;;;;;;2070771;28;20513;-93
2022/02/16 03:31:02;;;;;;;4.15;3.03;;;8.60;96.30;;;;;;2060484;28;20039;-92
2022/02/16 03:32:21;;;;;;;5.05;3.30;;;8.60;96.30;;;;;;2048975;28;20078;-93
2022/02/16 03:33:41;;;;;;;4.20;3.15;;;8.60;96.30;;;;;;2059679;28;20038;-92
2022/02/16 03:35:00;;;;;;;7.30;3.20;;;8.60;96.30;;;;;;2065738;28;20038;-94
2022/02/16 03:36:19;;;;;;;4.82;3.53;;;8.60;96.30;;;;;;2071143;28;20500;-93
2022/02/16 03:37:38;;;;;;;5.07;3.45;;;8.60;96.30;;;;;;2060122;28;20039;-92
2022/02/16 03:38:57;;;;;;;5.35;3.60;;;8.60;96.30;;;;;;2071778;28;20455;-92
2022/02/16 03:40:16;;;;;;;5.32;3.63;;;8.60;96.40;;;;;;2055121;28;20047;-92
2022/02/16 03:41:36;;;;;;;4.95;3.40;;;8.60;96.40;;;;;;2044538;28;20047;-92
2022/02/16 03:42:55;;;;;;;4.70;3.28;;;8.60;96.40;;;;;;2036100;29;20221;-93
2022/02/16 03:44:15;;;;;;;5.53;3.33;;;8.60;96.40;;;;;;2050924;28;20051;-93
2022/02/16 03:45:34;;;;;;;5.20;3.97;;;8.60;96.40;;;;;;2057940;28;20039;-92
2022/02/16 03:46:55;;;;;;;4.57;3.28;;;8.60;96.40;;;;;;2050275;28;20055;-92
2022/02/16 03:48:14;;;;;;;3.63;2.95;;;8.60;96.60;;;;;;2062388;28;20050;-93
2022/02/16 03:49:33;;;;;;;5.13;3.42;;;8.60;96.40;;;;;;2059121;28;20027;-92
2022/02/16 03:50:53;;;;;;;5.15;3.20;;;8.60;96.40;;;;;;2057250;28;20043;-92
2022/02/16 03:52:12;;;;;;;4.57;2.95;;;8.60;96.30;;;;;;2051884;28;20078;-91
2022/02/16 03:53:31;;;;;;;3.83;2.85;;;8.60;96.40;;;;;;2053783;28;20125;-93
2022/02/16 03:54:53;;;;;;;3.83;2.47;;;8.60;96.40;;;;;;2053987;28;20043;-92
2022/02/16 03:56:12;;;;;;;4.28;2.78;;;8.60;96.40;;;;;;2060627;28;20070;-92
2022/02/16 03:57:31;;;;;;;4.20;2.70;;;8.60;96.30;;;;;;2061096;28;20046;-92
2022/02/16 03:58:51;;;;;;;4.10;2.90;;;8.60;96.40;;;;;;2048822;28;20071;-91
2022/02/16 04:00:11;;;;;;;5.05;2.63;;;8.60;96.40;;;;;;2051368;28;20051;-92
2022/02/16 04:01:31;;;;;;;4.18;2.33;;;8.60;96.40;;;;;;2054161;28;20034;-92
2022/02/16 04:02:50;;;;;;;4.35;2.65;;;8.60;96.40;;;;;;2050253;28;20505;-92
2022/02/16 04:04:10;;;;;;;4.65;3.00;;;8.60;96.40;;;;;;2075667;28;20425;-91
2022/02/16 04:05:29;;;;;;;4.05;2.83;;;8.60;96.40;;;;;;2088023;28;20041;-92
2022/02/16 04:06:48;;;;;;;5.00;2.90;;;8.60;96.40;;;;;;2068873;28;20043;-91
2022/02/16 04:08:08;;;;;;;4.10;2.72;;;8.60;96.40;;;;;;2096961;28;20045;-92
2022/02/16 04:09:28;;;;;;;5.18;2.67;;;8.60;96.40;;;;;;2089109;28;20045;-91
2022/02/16 04:10:47;;;;;;;4.72;2.45;;;8.60;96.40;;;;;;2084677;28;20041;-92
2022/02/16 04:12:07;;;;;;;3.17;2.35;;;8.60;96.40;;;;;;2092727;28;20025;-93
2022/02/16 04:13:26;;;;;;;5.38;2.90;;;8.60;96.40;;;;;;2065539;28;20040;-92
2022/02/16 04:14:46;;;;;;;3.75;2.65;;;8.60;96.40;;;;;;2054316;28;20038;-92
2022/02/16 04:16:06;;;;;;;3.58;2.65;;;8.60;96.40;;;;;;2057895;28;20046;-92
2022/02/16 04:17:25;;;;;;;4.00;2.50;;;8.60;96.40;;;;;;2085297;28;20033;-92
2022/02/16 04:18:45;;;;;;;3.42;2.40;;;8.60;96.40;;;;;;2062069;28;20047;-92
2022/02/16 04:20:05;;;;;;;4.03;2.42;;;8.60;96.40;;;;;;2086829;28;20124;-92
2022/02/16 04:21:24;;;;;;;3.42;2.40;;;8.60;96.40;;;;;;2077151;28;20042;-90
2022/02/16 04:22:45;;;;;;;3.90;2.40;;;8.60;96.50;;;;;;2087880;28;20086;-92
2022/02/16 04:24:04;;;;;;;3.38;2.35;;;8.60;96.50;;;;;;2070657;28;20027;-92
2022/02/16 04:25:23;;;;;;;3.95;2.63;;;8.60;96.50;;;;;;2090248;28;20037;-92
2022/02/16 04:26:43;;;;;;;3.13;2.40;;;8.60;96.50;;;;;;2083345;28;20041;-92
2022/02/16 04:28:04;;;;;;;4.13;2.45;;;8.50;96.50;;;;;;2044425;29;20051;-91
2022/02/16 04:29:24;;;;;;;3.85;2.60;;;8.60;96.50;;;;;;2064307;28;20038;-92
2022/02/16 04:30:43;;;;;;;4.57;2.80;;;8.50;96.50;;;;;;2088754;28;20465;-92
2022/02/16 04:32:03;;;;;;;2.97;2.17;;;8.60;96.50;;;;;;2069165;28;20046;-91
2022/02/16 04:33:22;;;;;;;2.53;1.95;;;8.50;96.50;;;;;;2049500;29;20043;-92
2022/02/16 04:34:41;;;;;;;3.33;2.10;;;8.60;96.50;;;;;;2053991;28;20481;-92
2022/02/16 04:36:01;;;;;;;2.85;2.13;;;8.50;96.50;;;;;;2079282;28;20038;-93
2022/02/16 04:37:20;;;;;;;3.33;2.25;;;8.60;96.50;;;;;;2082387;28;20041;-93
2022/02/16 04:38:39;;;;;;;4.15;2.30;;;8.60;96.50;;;;;;2083033;28;20045;-92
2022/02/16 04:39:58;;;;;;;3.25;2.30;;;8.60;96.50;;;;;;2079183;28;20061;-92
2022/02/16 04:41:18;;;;;;;4.05;2.53;;;8.60;96.50;;;;;;2085508;28;20045;-91
2022/02/16 04:42:37;;;;;;;3.28;2.20;;;8.60;96.50;;;;;;2070085;28;20129;-91
2022/02/16 04:43:56;;;;;;;2.88;2.00;;;8.60;96.50;;;;;;2049756;28;20043;-91
2022/02/16 04:45:15;;;;;;;3.72;2.42;;;8.50;96.50;;;;;;2082412;28;20072;-92
2022/02/16 04:46:34;;;;;;;3.13;2.28;;;8.60;96.50;;;;;;2079143;28;20144;-92
2022/02/16 04:47:54;;;;;;;3.15;1.98;;;8.60;96.50;;;;;;2063652;28;20062;-92
2022/02/16 04:49:13;;;;;;;3.22;2.00;;;8.60;96.50;;;;;;2107000;28;20036;-91
2022/02/16 04:50:33;;;;;;;3.60;2.28;;;8.60;96.50;;;;;;2058086;28;20035;-91
2022/02/16 04:51:52;;;;;;;2.33;1.77;;;8.60;96.50;;;;;;2056670;28;20034;-92
2022/02/16 04:53:11;;;;;;;2.83;1.80;;;8.60;96.50;;;;;;2039335;29;20037;-91
2022/02/16 04:54:31;;;;;;;3.38;2.20;;;8.60;96.50;;;;;;2047897;29;20058;-91
2022/02/16 04:55:52;;;;;;;3.47;2.10;;;8.60;96.50;;;;;;2054053;29;20044;-92
2022/02/16 04:57:11;;;;;;;3.78;2.22;;;8.60;96.60;;;;;;2050053;29;20043;-92
2022/02/16 04:58:30;;;;;;;4.10;2.55;;;8.60;96.60;;;;;;2089045;28;20045;-92
2022/02/16 04:59:50;;;;;;;4.32;2.58;;;8.60;96.60;;;;;;2077403;28;20038;-92
2022/02/16 05:01:09;;;;;;;4.00;2.40;;;8.60;96.60;;;;;;2077733;28;20053;-93
2022/02/16 05:02:29;;;;;;;4.15;2.83;;;8.60;96.50;;;;;;2086069;28;20053;-91
2022/02/16 05:03:48;;;;;;;3.78;2.40;;;8.60;96.60;;;;;;2049370;28;20098;-91
2022/02/16 05:05:08;;;;;;;3.15;2.45;;;8.60;96.50;;;;;;2056710;28;20734;-92
2022/02/16 05:06:27;;;;;;;2.90;2.10;;;8.60;96.60;;;;;;2087455;28;20515;-92
2022/02/16 05:07:46;;;;;;;4.80;2.67;;;8.60;96.60;;;;;;2054731;28;20071;-91
2022/02/16 05:09:06;;;;;;;4.18;2.33;;;8.60;96.60;;;;;;2054233;28;20042;-92
2022/02/16 05:10:25;;;;;;;4.43;2.60;;;8.60;96.50;;;;;;2064564;28;20520;-91
2022/02/16 05:11:44;;;;;;;3.55;2.47;;;8.70;96.60;;;;;;2057404;28;20047;-91
2022/02/16 05:13:05;;;;;;;3.95;2.45;;;8.70;96.60;;;;;;2058488;28;20505;-92
2022/02/16 05:14:24;;;;;;;4.47;2.92;;;8.70;96.60;;;;;;2060575;28;20508;-92
2022/02/16 05:15:44;;;;;;;5.18;3.10;;;8.70;96.60;;;;;;2060371;28;20050;-91
2022/02/16 05:17:03;;;;;;;4.53;3.22;;;8.70;96.60;;;;;;2090787;28;20033;-92
2022/02/16 05:18:23;;;;;;;3.80;2.63;;;8.70;96.60;;;;;;2061993;28;20030;-91
2022/02/16 05:19:43;;;;;;;4.25;2.85;;;8.70;96.60;;;;;;2063465;28;20405;-91
2022/02/16 05:21:02;;;;;;;3.88;2.83;;;8.70;96.60;;;;;;2066454;28;20092;-93
2022/02/16 05:22:22;;;;;;;4.43;3.17;;;8.70;96.60;;;;;;2066638;28;20055;-92
2022/02/16 05:23:43;;;;;;;4.30;3.00;;;8.70;96.60;;;;;;2066689;28;20034;-91
2022/02/16 05:25:03;;;;;;;5.32;2.90;;;8.80;96.60;;;;;;2057478;28;20117;-92
2022/02/16 05:26:21;;;;;;;4.25;2.90;;;8.70;96.70;;;;;;2063104;28;20038;-92
2022/02/16 05:27:41;;;;;;;4.90;3.00;;;8.70;96.60;;;;;;2058067;28;20077;-92
2022/02/16 05:29:00;;;;;;;3.97;2.63;;;8.80;96.70;;;;;;2049777;28;20035;-91
2022/02/16 05:30:19;;;;;;;3.92;3.00;;;8.80;96.70;;;;;;2059388;28;20046;-91
2022/02/16 05:31:39;;;;;;;3.58;2.40;;;8.70;96.60;;;;;;2057959;28;20420;-91
2022/02/16 05:32:58;;;;;;;4.43;2.75;;;8.70;96.60;;;;;;2061720;28;20491;-92
2022/02/16 05:34:17;;;;;;;3.78;2.75;;;8.80;96.70;;;;;;2051960;28;20046;-92
2022/02/16 05:35:37;;;;;;;4.20;2.70;;;8.80;96.70;;;;;;2058188;28;20106;-89
2022/02/16 05:36:56;;;;;;;3.53;2.50;;;8.80;96.70;;;;;;2051986;28;20031;-91
2022/02/16 05:38:15;;;;;;;4.18;2.60;;;8.80;96.70;;;;;;2049639;29;20039;-92
2022/02/16 05:39:35;;;;;;;4.05;2.70;;;8.80;96.70;;;;;;2056004;28;20035;-93
2022/02/16 05:40:54;;;;;;;4.90;2.38;;;8.80;96.70;;;;;;2059061;28;20113;-92
2022/02/16 05:42:13;;;;;;;2.58;2.28;;;8.80;96.70;;;;;;2061076;28;20478;-93
2022/02/16 05:43:32;;;;;;;4.18;2.50;;;8.80;96.70;;;;;;2058606;28;20449;-93
2022/02/16 05:44:52;;;;;;;3.92;2.70;;;8.80;96.70;;;;;;2052716;28;20043;-93
2022/02/16 05:46:11;;;;;;;2.70;2.00;;;8.80;96.70;;;;;;2091171;28;20045;-93
2022/02/16 05:47:30;;;;;;;3.05;2.10;;;8.80;96.70;;;;;;2070801;28;20118;-93
2022/02/16 05:48:49;;;;;;;3.47;2.30;;;8.80;96.70;;;;;;2054666;28;20042;-93
2022/02/16 05:50:09;;;;;;;3.00;2.40;;;8.80;96.70;;;;;;2053721;28;20035;-93
2022/02/16 05:51:28;;;;;;;4.32;2.60;;;8.80;96.70;;;;;;2048874;29;20052;-93
2022/02/16 05:52:48;;;;;;;3.05;2.22;;;8.80;96.80;;;;;;2045025;29;20432;-93
2022/02/16 05:54:07;;;;;;;3.17;2.17;;;8.80;96.70;;;;;;2056537;28;20161;-93
2022/02/16 05:55:26;;;;;;;3.25;2.17;;;8.80;96.70;;;;;;2055204;28;20429;-93
2022/02/16 05:56:45;;;;;;;2.65;2.10;;;8.80;96.70;;;;;;2041250;29;20028;-93
2022/02/16 05:58:05;;;;;;;2.85;2.10;;;8.80;96.80;;;;;;2050940;28;20043;-93
2022/02/16 05:59:24;;;;;;;2.40;1.90;;;8.80;96.80;;;;;;2050247;28;20529;-92
2022/02/16 06:00:43;;;;;;;2.60;1.90;;;8.80;96.80;;;;;;2060134;28;20050;-93
2022/02/16 06:02:04;;;;;;;2.83;2.22;;;8.80;97.10;;;;;;2047715;28;20035;-94
2022/02/16 06:03:23;;;;;;;2.78;2.15;;;8.80;96.80;;;;;;2045538;28;20055;-95
2022/02/16 06:04:43;;;;;;;3.20;2.13;;;8.80;96.80;;;;;;2066765;28;20066;-94
2022/02/16 06:06:02;;;;;;;2.35;1.80;;;8.80;96.80;;;;;;2041378;28;20051;-94
2022/02/16 06:07:21;;;;;;;2.40;2.00;;;8.80;96.80;;;;;;2048422;28;20110;-93
2022/02/16 06:08:40;;;;;;;2.40;1.90;;;8.80;96.80;;;;;;2055999;28;20125;-93
2022/02/16 06:10:00;;;;;;;3.45;2.05;;;8.80;96.80;;;;;;2070947;28;20078;-93
2022/02/16 06:11:19;;;;;;;2.10;1.70;;;8.80;96.80;;;;;;2075283;28;20159;-93
2022/02/16 06:12:40;;;;;;;2.10;1.50;;;8.80;96.80;;;;;;2064258;28;20038;-94
2022/02/16 06:13:59;;;;;;;2.30;1.90;;;8.90;96.80;;;;;;2061672;28;20039;-93
2022/02/16 06:15:18;;;;;;;1.90;1.52;;;8.90;96.80;;;;;;2065126;28;20133;-94
2022/02/16 06:16:37;;;;;;;2.17;1.70;;;8.80;96.80;;;;;;2065310;28;20050;-93
2022/02/16 06:17:56;;;;;;;2.28;1.70;;;8.80;96.80;;;;;;2069635;28;20052;-95
2022/02/16 06:19:15;;;;;;;2.20;1.73;;;8.80;96.80;;;;;;2058642;28;20114;-93
2022/02/16 06:20:34;;;;;;;2.70;1.90;;;8.80;96.80;;;;;;2077142;28;20066;-94
2022/02/16 06:21:53;;;;;;;2.50;2.20;;;8.90;96.90;;;;;;2083768;28;20050;-92
2022/02/16 06:23:13;;;;;;;2.05;1.85;;;8.90;96.90;;;;;;2056850;28;20043;-94
2022/02/16 06:24:33;;;;;;;2.47;2.00;;;8.90;96.90;;;;;;2065537;28;20040;-93
2022/02/16 06:25:52;;;;;;;2.13;1.75;;;8.90;96.90;;;;;;2046316;28;20135;-91
2022/02/16 06:27:11;;;;;;;2.10;1.90;;;8.90;96.90;;;;;;2054026;28;20473;-92
2022/02/16 06:28:31;;;;;;;1.90;1.67;;;8.90;96.90;;;;;;2071917;28;20149;-93
2022/02/16 06:29:50;;;;;;;2.25;1.75;;;8.90;96.90;;;;;;2067554;28;20035;-93
2022/02/16 06:31:09;;;;;;;1.55;1.45;;;8.90;96.90;;;;;;2076478;28;20110;-92
2022/02/16 06:32:29;;;;;;;1.90;1.60;;;8.90;96.80;;;;;;2062526;28;20044;-94
2022/02/16 06:33:48;;;;;;;2.25;1.85;;;8.90;96.90;;;;;;2066303;28;20042;-94
2022/02/16 06:35:07;;;;;;;2.15;1.90;;;8.90;96.90;;;;;;2070569;28;20035;-93
2022/02/16 06:36:26;;;;;;;2.72;2.10;;;8.90;96.90;;;;;;2059718;28;20059;-92
2022/02/16 06:37:46;;;;;;;2.40;1.95;;;8.90;96.90;;;;;;2096784;28;20426;-90
2022/02/16 06:39:05;;;;;;;2.55;1.80;;;8.90;96.90;;;;;;2085813;28;20040;-92
2022/02/16 06:40:27;;;;;;;2.63;1.60;;;8.90;96.90;;;;;;2062225;28;20046;-93
2022/02/16 06:41:46;;;;;;;2.78;1.90;;;9.00;96.90;;;;;;2071891;28;20041;-92
2022/02/16 06:43:05;;;;;;;2.28;1.88;;;9.00;96.90;;;;;;2088156;28;20052;-92
2022/02/16 06:44:24;;;;;;;2.42;1.77;;;9.00;96.90;;;;;;2056091;28;20043;-92
2022/02/16 06:45:44;;;;;;;2.33;2.00;;;9.00;96.90;;;;;;2069756;28;20038;-91
2022/02/16 06:47:04;;;;;;;2.80;2.20;;;9.00;96.90;;;;;;2061713;28;20068;-93
2022/02/16 06:48:23;;;;;;;2.53;1.90;;;9.00;97.20;;;;;;2062921;28;20045;-92
2022/02/16 06:49:42;;;;;;;3.13;2.08;;;9.00;97.00;;;;;;2062389;28;20038;-91
2022/02/16 06:51:01;;;;;;;3.40;2.20;;;9.00;97.00;;;;;;2049169;28;20039;-92
2022/02/16 06:52:20;;;;;;;2.55;2.00;;;9.00;97.00;;;;;;2058237;28;20501;-91
2022/02/16 06:53:40;;;;;;;2.22;1.77;;;9.00;97.00;;;;;;2068269;28;20416;-92
2022/02/16 06:54:59;;;;;;;2.92;2.08;;;9.00;97.00;;;;;;2106847;28;20398;-92
2022/02/16 06:56:18;;;;;;;2.30;1.80;;;9.00;97.00;;;;;;2089580;28;20117;-92
2022/02/16 06:57:38;;;;;;;2.30;1.80;;;9.10;97.00;;;;;;2050854;28;20051;-92
2022/02/16 06:58:57;;;;;;;2.70;1.92;;;9.00;97.00;;;;;;2094253;28;20522;-91
2022/02/16 07:00:17;;;;;;;2.20;1.63;;;9.10;97.00;;;;;;2062339;28;20074;-92